Time;durP1;ratioP1;P1;durP2;ratioP2;P2;SDS_P1;SDS_P2;PMS_P1;PMS_P2;Temp;Humidity;BMP_temperature;BMP_pressure;BME280_temperature;BME280_humidity;BME280_pressure;Samples;Min_cycle;Max_cycle;Signal;HPM_P1;HPM_P2
2022/07/29 00:00:38;;;;;;;5.55;2.10;;;19.90;1.00;;;;;;5144985;27;34381;-77
2022/07/29 00:03:04;;;;;;;3.42;1.50;;;19.80;1.00;;;;;;5144738;27;34177;-76
2022/07/29 00:05:30;;;;;;;2.95;1.60;;;19.80;1.00;;;;;;5144670;27;35546;-76
2022/07/29 00:07:56;;;;;;;1.80;1.58;;;19.70;1.00;;;;;;5145143;27;34317;-76
2022/07/29 00:10:22;;;;;;;1.92;1.55;;;19.70;1.00;;;;;;5128040;27;34199;-76
2022/07/29 00:12:48;;;;;;;2.72;1.58;;;19.70;1.00;;;;;;5144946;27;34514;-76
2022/07/29 00:15:14;;;;;;;8.18;1.63;;;19.60;1.00;;;;;;5140904;27;35526;-76
2022/07/29 00:17:40;;;;;;;1.70;1.60;;;19.60;1.00;;;;;;5146561;27;34182;-76
2022/07/29 00:20:07;;;;;;;2.65;1.63;;;19.50;1.00;;;;;;5144710;27;34477;-76
2022/07/29 00:22:36;;;;;;;3.15;1.73;;;19.50;1.00;;;;;;5123783;27;34688;-76
2022/07/29 00:25:03;;;;;;;2.38;1.60;;;19.50;1.00;;;;;;5125604;27;35249;-76
2022/07/29 00:27:29;;;;;;;2.15;1.67;;;19.40;1.00;;;;;;5144944;27;34396;-76
2022/07/29 00:29:54;;;;;;;1.73;1.60;;;19.40;1.00;;;;;;5144152;27;34254;-76
2022/07/29 00:32:20;;;;;;;3.00;1.80;;;19.30;1.00;;;;;;5127238;27;34154;-75
2022/07/29 00:37:28;;;;;;;3.00;1.70;;;19.20;1.00;;;;;;5134563;27;34129;-76
2022/07/29 00:39:54;;;;;;;1.83;1.55;;;19.10;1.00;;;;;;5124657;27;34277;-76
2022/07/29 00:42:20;;;;;;;4.20;1.30;;;19.00;1.00;;;;;;5144202;27;34466;-76
2022/07/29 00:44:46;;;;;;;1.52;1.23;;;19.00;1.10;;;;;;5123900;27;35723;-77
2022/07/29 00:47:13;;;;;;;2.95;1.70;;;18.90;1.20;;;;;;5129435;27;34471;-76
2022/07/29 00:49:40;;;;;;;1.88;1.70;;;18.80;1.30;;;;;;5143985;27;34697;-76
2022/07/29 00:52:08;;;;;;;2.95;1.85;;;18.80;1.50;;;;;;5127664;27;34542;-76
2022/07/29 00:54:34;;;;;;;4.40;1.90;;;18.70;1.60;;;;;;5143880;27;35534;-76
2022/07/29 00:57:01;;;;;;;2.33;1.85;;;18.60;1.60;;;;;;5143660;27;34230;-76
2022/07/29 00:59:28;;;;;;;1.83;1.63;;;18.50;1.70;;;;;;5145705;27;34197;-76
2022/07/29 01:01:54;;;;;;;2.42;1.70;;;18.40;1.70;;;;;;5145425;27;34059;-75
2022/07/29 01:04:21;;;;;;;1.70;1.60;;;18.40;1.90;;;;;;5144843;27;34379;-75
2022/07/29 01:06:49;;;;;;;3.20;1.90;;;18.30;2.10;;;;;;5127011;27;34182;-75
2022/07/29 01:09:16;;;;;;;3.00;2.80;;;18.20;2.10;;;;;;5143967;27;34300;-75
2022/07/29 01:11:46;;;;;;;2.08;1.58;;;18.20;2.00;;;;;;5144282;27;34007;-76
2022/07/29 01:14:12;;;;;;;2.42;1.67;;;18.20;2.10;;;;;;5144437;27;34445;-76
2022/07/29 01:16:47;;;;;;;6.10;1.70;;;18.10;2.00;;;;;;5131768;27;34314;-76
2022/07/29 01:19:35;;;;;;;1.55;1.45;;;18.10;3.40;;;;;;5129957;27;34231;-76
2022/07/29 01:22:16;;;;;;;1.88;1.40;;;18.00;3.50;;;;;;5144739;27;34363;-76
2022/07/29 01:25:14;;;;;;;2.40;1.73;;;18.00;3.20;;;;;;5144643;27;34305;-76
2022/07/29 01:27:59;;;;;;;1.50;1.40;;;17.80;4.80;;;;;;5143923;27;34329;-76
2022/07/29 01:30:27;;;;;;;2.17;1.70;;;17.70;3.90;;;;;;5143262;27;34469;-75
2022/07/29 01:32:58;;;;;;;2.50;1.70;;;17.70;2.50;;;;;;5143617;27;34356;-75
2022/07/29 01:35:27;;;;;;;1.65;1.55;;;17.60;3.00;;;;;;5144906;27;34562;-75
2022/07/29 01:38:10;;;;;;;1.50;1.40;;;17.50;3.20;;;;;;5143625;27;34220;-76
2022/07/29 01:40:49;;;;;;;2.38;1.90;;;17.50;5.40;;;;;;5144889;27;34152;-75
2022/07/29 01:43:20;;;;;;;1.90;1.65;;;17.40;5.20;;;;;;5126071;27;34075;-75
2022/07/29 01:45:56;;;;;;;1.60;1.50;;;17.40;3.60;;;;;;5124078;27;34642;-75
2022/07/29 01:48:27;;;;;;;1.60;1.50;;;17.30;4.00;;;;;;5109979;27;34373;-75
2022/07/29 01:50:59;;;;;;;1.50;1.40;;;17.20;3.30;;;;;;5127641;27;34154;-76
2022/07/29 01:53:33;;;;;;;3.03;1.77;;;17.20;3.80;;;;;;5130334;27;34570;-76
2022/07/29 01:56:01;;;;;;;1.70;1.60;;;17.10;4.50;;;;;;5126450;27;35695;-75
2022/07/29 01:58:31;;;;;;;1.95;1.60;;;17.10;3.60;;;;;;5144428;27;34084;-76
2022/07/29 02:00:59;;;;;;;2.17;1.60;;;17.10;3.90;;;;;;5147263;27;34062;-75
2022/07/29 02:03:26;;;;;;;4.78;1.52;;;17.00;3.70;;;;;;5148329;27;34011;-75
2022/07/29 02:05:55;;;;;;;1.80;1.70;;;17.00;3.70;;;;;;5146625;27;35518;-75
2022/07/29 02:08:21;;;;;;;4.22;2.08;;;17.00;3.60;;;;;;5147647;27;34173;-75
2022/07/29 02:10:50;;;;;;;3.63;1.90;;;16.90;3.60;;;;;;5146745;27;34485;-76
2022/07/29 02:13:17;;;;;;;3.47;1.63;;;16.90;3.80;;;;;;5145857;27;34502;-75
2022/07/29 02:15:46;;;;;;;1.60;1.50;;;16.90;3.90;;;;;;5129188;27;36354;-75
2022/07/29 02:18:17;;;;;;;3.65;1.70;;;16.90;4.00;;;;;;5147835;27;34217;-76
2022/07/29 02:20:47;;;;;;;2.15;1.70;;;16.80;4.20;;;;;;5117611;27;34143;-75
2022/07/29 02:23:20;;;;;;;2.20;1.70;;;16.80;4.20;;;;;;5139116;27;34153;-75
2022/07/29 02:25:49;;;;;;;3.03;1.70;;;16.70;4.30;;;;;;5137043;27;35255;-75
2022/07/29 02:28:17;;;;;;;2.08;1.60;;;16.60;4.40;;;;;;5135788;27;34367;-75
2022/07/29 02:30:44;;;;;;;2.20;2.00;;;16.60;4.20;;;;;;5146547;27;34187;-76
2022/07/29 02:33:12;;;;;;;2.13;1.67;;;16.60;4.30;;;;;;5146583;27;34493;-75
2022/07/29 02:35:40;;;;;;;1.80;1.70;;;16.60;4.40;;;;;;5146175;27;35574;-75
2022/07/29 02:40:51;;;;;;;3.40;2.13;;;16.50;5.30;;;;;;5138271;27;35234;-75
2022/07/29 02:43:20;;;;;;;2.53;1.63;;;16.50;4.60;;;;;;5144934;27;34552;-76
2022/07/29 02:45:51;;;;;;;2.17;1.98;;;16.50;4.90;;;;;;5120912;27;35958;-75
2022/07/29 02:48:22;;;;;;;3.50;1.63;;;16.50;5.00;;;;;;5139365;27;34196;-76
2022/07/29 02:50:54;;;;;;;1.77;1.63;;;16.50;5.30;;;;;;5146200;27;34210;-75
2022/07/29 02:53:24;;;;;;;2.60;1.73;;;16.50;5.50;;;;;;5129045;27;34403;-75
2022/07/29 02:56:06;;;;;;;4.30;1.90;;;16.50;5.30;;;;;;5139641;27;35627;-75
2022/07/29 02:58:38;;;;;;;1.48;1.38;;;16.50;7.20;;;;;;5142792;27;34308;-75
2022/07/29 03:01:10;;;;;;;2.33;1.90;;;16.50;5.50;;;;;;5127243;27;34230;-75
2022/07/29 03:03:38;;;;;;;2.08;1.95;;;16.60;5.10;;;;;;5128540;27;34137;-75
2022/07/29 03:06:05;;;;;;;2.38;1.85;;;16.60;5.20;;;;;;5145482;27;35616;-75
2022/07/29 03:08:34;;;;;;;4.03;2.40;;;16.60;5.20;;;;;;5129142;27;34273;-75
2022/07/29 03:11:01;;;;;;;2.17;1.98;;;16.50;5.20;;;;;;5146693;27;34247;-75
2022/07/29 03:13:29;;;;;;;1.83;1.73;;;16.60;5.30;;;;;;5145500;27;34322;-75
2022/07/29 03:15:57;;;;;;;1.90;1.80;;;16.50;5.30;;;;;;5127174;27;35625;-75
2022/07/29 03:18:24;;;;;;;4.50;2.17;;;16.50;5.30;;;;;;5125390;27;34323;-75
2022/07/29 03:20:50;;;;;;;4.32;1.90;;;16.60;5.30;;;;;;5125150;27;34274;-75
2022/07/29 03:23:22;;;;;;;2.05;1.88;;;16.60;5.30;;;;;;5125161;27;34523;-75
2022/07/29 03:25:49;;;;;;;1.90;1.80;;;16.60;6.20;;;;;;5117108;27;35677;-75
2022/07/29 03:28:15;;;;;;;2.63;1.90;;;16.70;5.50;;;;;;5116913;27;34191;-75
2022/07/29 03:30:41;;;;;;;2.75;1.75;;;16.70;5.40;;;;;;5124951;27;34122;-76
2022/07/29 03:33:07;;;;;;;2.80;1.90;;;16.70;5.50;;;;;;5126251;27;34245;-75
2022/07/29 03:35:33;;;;;;;1.95;1.80;;;16.70;5.50;;;;;;5142080;27;35737;-75
2022/07/29 03:37:59;;;;;;;1.38;1.27;;;16.70;5.40;;;;;;5124843;27;34287;-76
2022/07/29 03:40:33;;;;;;;3.63;1.73;;;16.70;5.50;;;;;;5126969;27;34353;-75
2022/07/29 03:43:01;;;;;;;3.30;1.80;;;16.80;5.80;;;;;;5163102;27;34099;-76
2022/07/29 03:45:30;;;;;;;1.70;1.60;;;16.80;5.70;;;;;;5136420;27;35586;-76
2022/07/29 03:48:01;;;;;;;2.08;1.63;;;16.70;5.80;;;;;;5130096;27;34310;-76
2022/07/29 03:50:30;;;;;;;2.30;1.80;;;16.70;6.20;;;;;;5061783;28;34179;-75
2022/07/29 03:52:57;;;;;;;2.15;1.70;;;16.70;5.80;;;;;;5147978;27;34472;-75
2022/07/29 03:55:24;;;;;;;1.92;1.60;;;16.70;5.70;;;;;;5131159;27;35638;-76
2022/07/29 03:57:50;;;;;;;2.70;1.95;;;16.60;5.70;;;;;;5165180;27;34109;-75
2022/07/29 04:00:16;;;;;;;1.70;1.60;;;16.60;5.80;;;;;;5061080;28;34199;-76
2022/07/29 04:02:47;;;;;;;2.58;1.63;;;16.60;5.80;;;;;;5148379;27;34129;-76
2022/07/29 04:05:14;;;;;;;2.33;1.80;;;16.50;6.00;;;;;;5130058;27;36628;-76
2022/07/29 04:07:43;;;;;;;1.88;1.77;;;16.50;5.90;;;;;;5130367;27;34319;-75
2022/07/29 04:10:09;;;;;;;2.95;1.80;;;16.50;6.00;;;;;;5130485;27;34353;-75
2022/07/29 04:12:35;;;;;;;3.50;1.85;;;16.40;6.10;;;;;;5165355;27;34078;-76
2022/07/29 04:15:03;;;;;;;1.77;1.67;;;16.40;6.00;;;;;;5130022;27;36199;-75
2022/07/29 04:17:29;;;;;;;1.90;1.80;;;16.40;6.10;;;;;;5086931;27;34243;-76
2022/07/29 04:19:55;;;;;;;2.20;1.73;;;16.30;6.10;;;;;;5043387;28;34244;-76
2022/07/29 04:22:22;;;;;;;2.33;1.90;;;16.30;6.20;;;;;;5060459;28;34337;-76
2022/07/29 04:24:47;;;;;;;5.38;1.85;;;16.30;6.40;;;;;;5060367;28;35747;-76
2022/07/29 04:27:13;;;;;;;3.20;1.67;;;16.20;6.40;;;;;;5060302;28;34126;-76
2022/07/29 04:29:39;;;;;;;3.17;1.67;;;16.20;6.50;;;;;;5060461;28;34300;-76
2022/07/29 04:32:06;;;;;;;3.95;1.90;;;16.20;6.60;;;;;;5113321;27;34076;-76
2022/07/29 04:37:16;;;;;;;1.60;1.50;;;16.20;6.70;;;;;;5060734;28;34081;-76
2022/07/29 04:39:42;;;;;;;1.55;1.45;;;16.20;6.70;;;;;;5131093;27;34052;-76
2022/07/29 04:42:08;;;;;;;4.63;1.90;;;16.20;6.70;;;;;;5130385;27;34409;-75
2022/07/29 04:44:34;;;;;;;2.13;1.65;;;16.10;6.80;;;;;;5055646;28;34428;-75
2022/07/29 04:47:00;;;;;;;4.15;1.95;;;16.10;6.70;;;;;;5140427;27;34382;-76
2022/07/29 04:49:26;;;;;;;2.10;1.70;;;16.10;6.70;;;;;;5168505;27;34350;-76
2022/07/29 04:51:52;;;;;;;3.38;1.80;;;16.10;6.80;;;;;;5125585;27;34340;-76
2022/07/29 04:54:18;;;;;;;2.20;1.90;;;16.10;6.90;;;;;;5158200;27;36391;-76
2022/07/29 04:56:44;;;;;;;2.38;1.70;;;16.10;6.90;;;;;;5159160;27;34206;-76
2022/07/29 04:59:09;;;;;;;2.67;1.85;;;16.10;6.90;;;;;;5158681;27;34397;-76
2022/07/29 05:01:35;;;;;;;1.88;1.73;;;16.10;6.90;;;;;;5140345;27;34116;-75
2022/07/29 05:04:01;;;;;;;2.20;1.90;;;16.20;7.00;;;;;;5140765;27;34714;-75
2022/07/29 05:06:27;;;;;;;3.05;1.90;;;16.20;7.00;;;;;;5125386;27;34056;-75
2022/07/29 05:08:53;;;;;;;10.35;2.00;;;16.20;7.00;;;;;;5106565;27;34344;-76
2022/07/29 05:11:20;;;;;;;2.45;1.90;;;16.20;7.00;;;;;;5106437;27;34527;-75
2022/07/29 05:13:46;;;;;;;2.53;1.88;;;16.20;7.10;;;;;;5089578;27;35780;-76
2022/07/29 05:16:12;;;;;;;2.10;1.92;;;16.20;7.10;;;;;;5128173;27;34060;-76
2022/07/29 05:18:39;;;;;;;2.20;1.95;;;16.20;7.10;;;;;;5144340;27;34267;-75
2022/07/29 05:21:05;;;;;;;2.53;1.95;;;16.20;7.20;;;;;;5143035;27;34060;-76
2022/07/29 05:23:30;;;;;;;2.95;2.00;;;16.30;7.20;;;;;;5126556;27;35769;-75
2022/07/29 05:25:56;;;;;;;4.22;1.90;;;16.40;7.10;;;;;;5143959;27;34144;-76
2022/07/29 05:28:22;;;;;;;3.38;1.90;;;16.70;6.90;;;;;;5127085;27;34082;-75
2022/07/29 05:30:49;;;;;;;6.30;2.05;;;17.20;6.10;;;;;;5161807;27;34223;-76
2022/07/29 05:33:15;;;;;;;1.80;1.70;;;18.00;5.40;;;;;;5145021;27;34348;-76
2022/07/29 05:35:41;;;;;;;1.88;1.77;;;18.70;4.30;;;;;;5126953;27;34325;-76
2022/07/29 05:38:07;;;;;;;2.67;1.85;;;19.40;3.20;;;;;;5144497;27;34653;-76
2022/07/29 05:40:33;;;;;;;2.83;1.70;;;20.10;2.90;;;;;;5144207;27;34116;-76
2022/07/29 05:42:59;;;;;;;1.90;1.80;;;20.70;1.60;;;;;;5143899;27;34900;-76
2022/07/29 05:45:25;;;;;;;2.17;1.70;;;21.10;1.00;;;;;;5143681;27;34278;-76
2022/07/29 05:47:51;;;;;;;3.83;2.15;;;21.70;1.00;;;;;;5143996;27;34171;-76
2022/07/29 05:50:17;;;;;;;2.58;1.75;;;22.20;1.00;;;;;;5126892;27;34083;-76
2022/07/29 05:52:47;;;;;;;1.92;1.70;;;22.70;1.00;;;;;;5126310;27;36785;-77
2022/07/29 05:55:13;;;;;;;2.03;1.83;;;23.20;1.00;;;;;;5126297;27;34210;-76
2022/07/29 05:57:39;;;;;;;3.50;1.80;;;23.50;1.00;;;;;;5127011;27;34183;-76
2022/07/29 06:00:05;;;;;;;4.13;1.80;;;23.90;1.00;;;;;;5126780;27;34504;-76
2022/07/29 06:02:31;;;;;;;1.67;1.50;;;24.40;1.00;;;;;;5143376;27;35937;-76
2022/07/29 06:04:57;;;;;;;2.80;1.63;;;24.80;1.00;;;;;;5143382;27;34105;-76
2022/07/29 06:07:23;;;;;;;2.03;1.67;;;25.30;1.00;;;;;;5143403;27;34284;-77
2022/07/29 06:09:49;;;;;;;4.72;1.50;;;25.70;1.00;;;;;;5126309;27;34428;-76
2022/07/29 06:12:15;;;;;;;2.53;1.60;;;26.20;1.00;;;;;;5125954;27;36201;-76
2022/07/29 06:14:41;;;;;;;7.40;2.35;;;26.40;1.00;;;;;;5143170;27;34384;-76
2022/07/29 06:17:08;;;;;;;2.70;1.70;;;26.70;1.00;;;;;;5126264;27;34198;-76
2022/07/29 06:19:35;;;;;;;1.98;1.83;;;26.90;1.00;;;;;;5135357;27;34294;-77
2022/07/29 06:22:07;;;;;;;3.78;2.05;;;27.00;1.00;;;;;;5142658;27;34258;-77
2022/07/29 06:24:37;;;;;;;6.15;1.90;;;27.30;1.00;;;;;;5143232;27;34228;-77
2022/07/29 06:27:03;;;;;;;2.58;1.77;;;27.60;1.00;;;;;;5143499;27;34600;-76
2022/07/29 06:29:30;;;;;;;3.67;1.48;;;28.00;1.00;;;;;;5125270;27;34274;-77
2022/07/29 06:31:56;;;;;;;5.78;2.65;;;28.30;1.00;;;;;;5160891;27;35932;-76
2022/07/29 06:34:22;;;;;;;2.50;1.65;;;28.60;1.00;;;;;;5129124;27;34334;-76
2022/07/29 06:36:49;;;;;;;16.60;2.10;;;28.80;1.00;;;;;;5139211;27;34608;-76
2022/07/29 06:39:15;;;;;;;2.55;1.65;;;28.90;1.00;;;;;;5121446;27;34119;-77
2022/07/29 06:41:41;;;;;;;4.10;1.30;;;29.10;1.00;;;;;;5128775;27;36563;-77
2022/07/29 06:44:07;;;;;;;3.40;1.90;;;29.20;1.00;;;;;;5128827;27;34543;-76
2022/07/29 06:46:34;;;;;;;6.43;1.63;;;29.20;1.00;;;;;;5129113;27;34535;-76
2022/07/29 06:49:01;;;;;;;3.28;1.60;;;29.50;1.00;;;;;;5146635;27;34320;-77
2022/07/29 06:51:27;;;;;;;4.35;1.67;;;29.60;1.00;;;;;;5128615;27;35969;-76
2022/07/29 06:53:53;;;;;;;3.78;1.90;;;29.60;1.00;;;;;;5146520;27;34196;-77
2022/07/29 06:56:19;;;;;;;2.22;1.25;;;29.70;1.00;;;;;;5147569;27;34212;-76
2022/07/29 06:58:46;;;;;;;1.60;1.50;;;29.90;1.00;;;;;;5149396;27;34418;-77
2022/07/29 07:01:12;;;;;;;10.52;1.65;;;30.10;1.00;;;;;;5149116;27;35104;-76
2022/07/29 07:03:38;;;;;;;1.90;1.58;;;30.30;1.00;;;;;;5129906;27;34209;-76
2022/07/29 07:06:04;;;;;;;2.75;1.10;;;30.40;1.00;;;;;;5146259;27;34200;-76
2022/07/29 07:08:30;;;;;;;2.70;1.50;;;30.50;1.00;;;;;;5129015;27;34391;-76
2022/07/29 07:10:56;;;;;;;1.55;1.45;;;30.60;1.00;;;;;;5145356;27;35478;-77
2022/07/29 07:13:23;;;;;;;2.42;1.50;;;30.80;1.00;;;;;;5146199;27;34193;-77
2022/07/29 07:15:50;;;;;;;3.03;1.38;;;30.90;1.00;;;;;;5147237;27;34390;-76
2022/07/29 07:18:17;;;;;;;3.10;1.30;;;31.10;1.00;;;;;;5145819;27;34130;-76
2022/07/29 07:20:44;;;;;;;5.40;1.20;;;31.30;1.00;;;;;;5128171;27;36169;-76
2022/07/29 07:23:10;;;;;;;1.98;1.30;;;31.40;1.00;;;;;;5128439;27;34142;-77
2022/07/29 07:25:36;;;;;;;3.05;1.40;;;31.60;1.00;;;;;;5145698;27;34237;-77
2022/07/29 07:28:03;;;;;;;2.17;1.50;;;31.70;1.00;;;;;;5147007;27;34284;-76
2022/07/29 07:30:29;;;;;;;3.45;1.63;;;31.90;1.00;;;;;;5147562;27;34327;-77
2022/07/29 07:32:55;;;;;;;3.85;1.75;;;32.00;1.00;;;;;;5158932;27;34095;-77
2022/07/29 07:35:32;;;;;;;2.15;1.60;;;31.70;1.00;;;;;;5149567;27;34276;-78
2022/07/29 07:37:59;;;;;;;3.25;1.70;;;31.50;1.00;;;;;;5124746;27;34410;-76
2022/07/29 07:40:25;;;;;;;1.60;1.30;;;31.30;1.00;;;;;;5180206;27;35584;-76
2022/07/29 07:42:51;;;;;;;1.67;1.55;;;31.40;1.00;;;;;;5165021;27;34339;-76
2022/07/29 07:45:17;;;;;;;2.13;1.38;;;31.50;1.00;;;;;;5154222;27;34438;-76
2022/07/29 07:47:43;;;;;;;5.25;1.40;;;31.60;1.00;;;;;;5104744;27;34320;-76
2022/07/29 07:50:11;;;;;;;8.32;1.45;;;31.90;1.00;;;;;;5071641;27;36641;-77
2022/07/29 07:52:54;;;;;;;11.90;2.22;;;31.80;1.00;;;;;;5060298;28;34193;-76
2022/07/29 07:55:21;;;;;;;11.15;1.77;;;32.00;1.00;;;;;;5082694;27;34080;-75
2022/07/29 07:57:47;;;;;;;5.47;1.20;;;31.80;1.00;;;;;;5054495;27;34084;-77
2022/07/29 08:00:15;;;;;;;5.38;1.20;;;31.80;1.00;;;;;;5150205;27;35780;-76
2022/07/29 08:02:42;;;;;;;2.38;1.20;;;31.80;1.00;;;;;;5085042;27;34203;-76
2022/07/29 08:05:10;;;;;;;2.53;1.30;;;31.60;1.00;;;;;;5097866;27;34639;-78
2022/07/29 08:07:36;;;;;;;5.28;1.70;;;31.50;1.00;;;;;;5124568;27;34436;-77
2022/07/29 08:10:04;;;;;;;5.53;1.40;;;31.20;1.00;;;;;;5130406;27;35681;-77
2022/07/29 08:12:30;;;;;;;3.05;1.20;;;31.10;1.00;;;;;;5106137;27;34192;-76
2022/07/29 08:14:58;;;;;;;4.00;1.50;;;30.70;1.00;;;;;;5061347;27;34253;-77
2022/07/29 08:17:25;;;;;;;2.85;1.20;;;30.70;1.00;;;;;;5062401;28;34070;-77
2022/07/29 08:19:51;;;;;;;1.90;1.20;;;30.40;1.00;;;;;;5078336;27;35644;-77
2022/07/29 08:22:18;;;;;;;1.55;1.15;;;30.40;1.00;;;;;;5110458;27;34449;-77
2022/07/29 08:24:52;;;;;;;3.30;1.10;;;30.30;1.00;;;;;;5112151;27;34263;-76
2022/07/29 08:27:19;;;;;;;5.00;1.52;;;30.30;1.00;;;;;;5144625;27;34009;-76
2022/07/29 08:29:45;;;;;;;1.45;1.10;;;30.40;1.00;;;;;;5049488;28;34525;-76
2022/07/29 08:32:11;;;;;;;3.95;1.55;;;30.70;1.00;;;;;;5108394;27;34267;-77
2022/07/29 08:34:37;;;;;;;6.80;1.30;;;30.90;1.00;;;;;;5129952;27;34475;-76
2022/07/29 08:37:04;;;;;;;4.85;1.20;;;31.20;1.00;;;;;;5132322;27;34516;-76
2022/07/29 08:39:30;;;;;;;4.22;1.27;;;31.60;1.00;;;;;;5099286;27;34293;-76
2022/07/29 08:41:56;;;;;;;6.13;1.88;;;31.60;1.00;;;;;;5125961;27;34236;-77
2022/07/29 08:44:22;;;;;;;2.63;1.10;;;31.60;1.00;;;;;;5148125;27;34098;-76
2022/07/29 08:46:49;;;;;;;5.82;1.25;;;31.60;1.00;;;;;;5061244;27;34135;-77
2022/07/29 08:49:17;;;;;;;1.17;1.08;;;31.70;1.00;;;;;;5111144;27;36133;-77
2022/07/29 08:51:43;;;;;;;1.98;1.30;;;31.60;1.00;;;;;;5074345;28;34490;-76
2022/07/29 08:54:10;;;;;;;3.17;1.40;;;31.30;1.00;;;;;;5106242;27;34129;-76
2022/07/29 08:56:38;;;;;;;1.73;1.20;;;31.30;1.00;;;;;;5060638;28;34150;-76
2022/07/29 08:59:07;;;;;;;1.77;1.17;;;31.40;1.00;;;;;;5060478;28;34307;-76
2022/07/29 09:01:37;;;;;;;1.92;1.15;;;31.50;1.00;;;;;;5059430;27;34212;-77
2022/07/29 09:04:05;;;;;;;2.67;1.42;;;31.60;1.00;;;;;;5130440;27;34106;-75
2022/07/29 09:06:34;;;;;;;3.65;1.20;;;31.70;1.00;;;;;;5106331;27;34363;-76
2022/07/29 09:09:00;;;;;;;1.10;0.90;;;31.80;1.00;;;;;;5052757;28;35181;-77
2022/07/29 09:11:28;;;;;;;1.48;1.30;;;32.10;1.00;;;;;;5114080;27;34363;-76
2022/07/29 09:13:54;;;;;;;4.05;1.40;;;32.30;1.00;;;;;;5041604;28;34126;-76
2022/07/29 09:16:20;;;;;;;4.32;1.45;;;32.30;1.00;;;;;;5129857;27;34500;-77
2022/07/29 09:18:46;;;;;;;3.92;1.20;;;32.50;1.00;;;;;;5060052;28;36041;-77
2022/07/29 09:24:13;;;;;;;1.50;1.40;;;32.60;1.00;;;;;;5151335;27;34195;-76
2022/07/29 09:26:42;;;;;;;2.00;1.17;;;32.90;1.00;;;;;;5130687;27;34348;-76
2022/07/29 09:29:13;;;;;;;3.95;1.95;;;33.10;1.00;;;;;;5148339;27;35560;-77
2022/07/29 09:31:43;;;;;;;2.88;1.30;;;33.30;1.00;;;;;;5147287;27;34137;-77
2022/07/29 09:34:10;;;;;;;2.95;1.30;;;33.50;1.00;;;;;;5130070;27;34273;-76
2022/07/29 09:36:46;;;;;;;1.58;1.48;;;33.70;1.00;;;;;;5129972;27;34470;-76
2022/07/29 09:39:14;;;;;;;3.47;1.60;;;33.70;1.00;;;;;;5128519;27;36006;-76
2022/07/29 09:41:54;;;;;;;3.53;1.38;;;33.40;1.00;;;;;;5059922;27;34184;-77
2022/07/29 09:44:21;;;;;;;2.15;1.20;;;33.40;1.00;;;;;;5043606;28;34126;-76
2022/07/29 09:47:07;;;;;;;1.65;1.40;;;33.20;1.00;;;;;;5072431;27;34689;-76
2022/07/29 09:49:34;;;;;;;1.20;1.10;;;33.40;1.00;;;;;;5059582;28;35780;-76
2022/07/29 09:52:06;;;;;;;3.55;1.30;;;33.60;1.00;;;;;;5053337;27;34246;-76
2022/07/29 09:54:40;;;;;;;1.63;1.23;;;33.80;1.00;;;;;;5165146;27;34420;-77
2022/07/29 09:57:12;;;;;;;1.33;1.23;;;33.80;1.00;;;;;;5146020;27;34348;-76
2022/07/29 09:59:38;;;;;;;3.45;1.48;;;33.80;1.00;;;;;;5145878;27;35674;-75
2022/07/29 10:02:13;;;;;;;3.50;1.30;;;33.60;1.00;;;;;;5147000;27;34356;-77
2022/07/29 10:04:41;;;;;;;1.58;1.48;;;33.30;1.00;;;;;;5040309;28;34120;-76
2022/07/29 10:07:08;;;;;;;2.70;1.27;;;33.00;1.00;;;;;;5145299;27;34348;-76
2022/07/29 10:09:35;;;;;;;4.68;1.27;;;32.80;1.00;;;;;;5060910;28;34364;-76
2022/07/29 10:12:13;;;;;;;2.78;1.63;;;32.80;1.00;;;;;;5062319;28;34497;-78
2022/07/29 10:14:39;;;;;;;3.03;1.13;;;32.90;1.00;;;;;;5139080;27;34459;-78
2022/07/29 10:17:06;;;;;;;1.75;1.23;;;32.90;1.00;;;;;;5164406;27;34263;-79
2022/07/29 10:19:34;;;;;;;3.38;1.30;;;32.80;1.00;;;;;;5133907;27;36609;-77
2022/07/29 10:22:08;;;;;;;4.72;1.42;;;33.00;1.00;;;;;;5049549;28;34356;-76
2022/07/29 10:24:35;;;;;;;1.58;1.40;;;33.20;1.00;;;;;;5139359;27;34186;-76
2022/07/29 10:27:03;;;;;;;4.63;1.40;;;33.40;1.00;;;;;;5168215;27;34324;-77
2022/07/29 10:29:31;;;;;;;2.60;1.30;;;33.50;1.00;;;;;;5133011;27;36322;-75
2022/07/29 10:32:22;;;;;;;4.40;1.77;;;33.30;1.00;;;;;;5150438;27;34179;-76
2022/07/29 10:35:19;;;;;;;1.80;1.50;;;33.50;1.00;;;;;;5147171;27;34213;-76
2022/07/29 10:38:15;;;;;;;2.22;1.40;;;33.80;1.00;;;;;;5142371;27;34217;-76
2022/07/29 10:43:56;;;;;;;4.93;1.67;;;34.00;1.00;;;;;;5062532;28;34113;-76
2022/07/29 10:46:23;;;;;;;2.40;1.48;;;34.30;1.00;;;;;;5146123;27;34223;-76
2022/07/29 10:49:06;;;;;;;2.55;1.45;;;34.20;1.00;;;;;;5151105;27;34176;-76
2022/07/29 10:52:03;;;;;;;3.00;1.20;;;34.10;1.00;;;;;;5147358;27;35720;-75
2022/07/29 10:54:42;;;;;;;4.95;1.50;;;34.00;1.00;;;;;;5152087;27;34550;-77
2022/07/29 10:57:20;;;;;;;1.42;1.25;;;33.70;1.00;;;;;;5142324;27;34249;-76
2022/07/29 10:59:49;;;;;;;4.15;1.77;;;33.60;1.00;;;;;;5139882;27;34403;-76
2022/07/29 11:02:44;;;;;;;2.58;1.30;;;33.50;1.00;;;;;;5165651;27;36372;-76
2022/07/29 11:05:16;;;;;;;3.72;1.40;;;33.80;1.00;;;;;;5105589;27;34273;-77
2022/07/29 11:08:13;;;;;;;3.28;1.70;;;33.90;1.00;;;;;;5078662;27;34237;-78
2022/07/29 11:10:40;;;;;;;3.63;1.42;;;34.00;1.00;;;;;;5105584;27;34319;-76
2022/07/29 11:13:06;;;;;;;2.40;1.20;;;34.00;1.00;;;;;;5086836;28;36073;-76
2022/07/29 11:15:55;;;;;;;1.98;1.30;;;34.00;1.00;;;;;;5116679;27;34277;-76
2022/07/29 11:18:21;;;;;;;4.25;1.20;;;33.90;1.00;;;;;;5106374;27;34098;-76
2022/07/29 11:20:49;;;;;;;1.50;1.40;;;33.80;1.00;;;;;;5128184;27;34349;-76
2022/07/29 11:23:36;;;;;;;4.82;1.50;;;33.60;1.00;;;;;;5107898;27;35578;-77
2022/07/29 11:26:20;;;;;;;3.67;1.50;;;33.50;1.00;;;;;;5098986;27;34327;-80
2022/07/29 11:29:24;;;;;;;7.32;1.70;;;33.40;1.00;;;;;;5094810;27;34269;-76
2022/07/29 11:31:55;;;;;;;1.73;1.23;;;33.50;1.00;;;;;;5113065;27;34222;-76
2022/07/29 11:34:29;;;;;;;4.05;1.30;;;33.40;1.00;;;;;;5121353;27;35275;-76
2022/07/29 11:37:15;;;;;;;3.50;1.17;;;33.30;1.00;;;;;;5123998;27;34123;-76
2022/07/29 11:39:47;;;;;;;0.98;0.98;;;33.10;1.00;;;;;;5147137;27;34192;-77
2022/07/29 11:42:37;;;;;;;1.98;1.58;;;33.10;1.00;;;;;;5152242;27;34578;-76
2022/07/29 11:45:14;;;;;;;3.17;2.20;;;32.90;1.00;;;;;;5159077;27;36306;-77
2022/07/29 11:47:48;;;;;;;10.23;5.68;;;32.80;1.00;;;;;;5045622;27;34752;-79
2022/07/29 11:50:27;;;;;;;8.00;2.80;;;32.80;1.00;;;;;;5026830;28;34150;-78
2022/07/29 11:52:54;;;;;;;3.67;1.33;;;32.90;1.00;;;;;;5047281;28;34522;-77
2022/07/29 11:55:22;;;;;;;2.78;1.30;;;32.90;1.00;;;;;;5075248;27;36088;-77
2022/07/29 11:57:52;;;;;;;2.15;1.60;;;33.00;1.00;;;;;;5054683;27;34065;-77
2022/07/29 12:00:25;;;;;;;1.38;1.23;;;33.10;1.00;;;;;;5043277;28;34171;-79
2022/07/29 12:02:52;;;;;;;2.75;1.27;;;33.30;1.00;;;;;;5056507;28;34945;-77
2022/07/29 12:05:20;;;;;;;2.05;1.35;;;33.30;1.00;;;;;;5041281;28;36039;-78
2022/07/29 12:07:48;;;;;;;3.33;1.10;;;33.50;1.00;;;;;;5014012;27;34379;-76
2022/07/29 12:10:15;;;;;;;3.80;1.25;;;33.80;1.00;;;;;;5048882;27;34121;-75
2022/07/29 12:12:41;;;;;;;11.00;3.08;;;34.00;1.00;;;;;;5051411;28;34309;-76
2022/07/29 12:15:14;;;;;;;4.63;1.90;;;34.00;1.00;;;;;;5035942;27;36553;-76
2022/07/29 12:17:40;;;;;;;43.05;14.23;;;33.90;1.00;;;;;;5028486;28;34137;-76
2022/07/29 12:20:06;;;;;;;9.88;3.13;;;33.60;1.00;;;;;;5051998;27;34271;-78
2022/07/29 12:22:36;;;;;;;6.90;3.00;;;33.40;1.00;;;;;;5041551;27;34579;-76
2022/07/29 12:25:07;;;;;;;3.83;1.98;;;33.00;1.00;;;;;;5027708;28;35547;-76
2022/07/29 12:27:33;;;;;;;10.25;5.38;;;32.90;1.00;;;;;;5029754;28;34216;-78
2022/07/29 12:30:02;;;;;;;5.63;3.10;;;32.80;1.00;;;;;;5054283;28;34280;-76
2022/07/29 12:32:38;;;;;;;3.53;1.98;;;32.60;1.00;;;;;;5040150;28;34580;-76
2022/07/29 12:35:14;;;;;;;3.10;1.58;;;32.50;1.00;;;;;;5056157;28;34416;-75
2022/07/29 12:37:42;;;;;;;21.50;8.95;;;32.30;1.00;;;;;;5042632;28;34189;-76
2022/07/29 12:40:10;;;;;;;3.30;2.28;;;32.40;1.00;;;;;;5044563;28;34187;-76
2022/07/29 12:42:37;;;;;;;1.75;1.60;;;32.60;1.00;;;;;;5039966;28;34292;-75
2022/07/29 12:45:04;;;;;;;5.65;1.80;;;32.90;1.00;;;;;;5055907;27;34910;-77
2022/07/29 12:47:30;;;;;;;4.70;2.22;;;33.00;1.00;;;;;;5142839;27;34583;-79
2022/07/29 12:50:17;;;;;;;3.58;2.10;;;32.90;1.00;;;;;;5143308;27;35174;-79
2022/07/29 12:52:44;;;;;;;3.80;2.22;;;32.90;1.00;;;;;;5140694;27;35297;-77
2022/07/29 12:55:10;;;;;;;3.30;1.80;;;33.00;1.00;;;;;;5148095;27;35501;-79
2022/07/29 12:57:53;;;;;;;4.18;2.08;;;33.00;1.00;;;;;;5152481;27;34249;-81
2022/07/29 13:00:23;;;;;;;6.82;1.95;;;33.00;1.00;;;;;;5127288;27;34605;-79
2022/07/29 13:02:58;;;;;;;2.90;1.55;;;32.90;1.00;;;;;;5142327;27;34411;-79
2022/07/29 13:05:38;;;;;;;1.50;1.40;;;33.10;1.00;;;;;;5128629;27;36426;-77
2022/07/29 13:08:14;;;;;;;3.90;1.40;;;33.40;1.00;;;;;;5129464;27;34552;-76
2022/07/29 13:10:41;;;;;;;3.83;1.33;;;33.60;1.00;;;;;;5159714;27;34089;-78
2022/07/29 13:13:13;;;;;;;3.80;1.50;;;33.50;1.00;;;;;;5156502;27;34121;-78
2022/07/29 13:15:42;;;;;;;2.30;1.60;;;33.50;1.00;;;;;;5145721;27;35407;-76
2022/07/29 13:18:33;;;;;;;2.33;1.25;;;33.40;1.00;;;;;;5145360;27;34170;-78
2022/07/29 13:21:12;;;;;;;3.72;1.45;;;33.10;1.00;;;;;;5145128;27;34349;-78
2022/07/29 13:23:38;;;;;;;2.65;1.38;;;32.90;1.00;;;;;;5145783;27;34216;-78